Time;durP1;ratioP1;P1;durP2;ratioP2;P2;SDS_P1;SDS_P2;PMS_P1;PMS_P2;Temp;Humidity;BMP_temperature;BMP_pressure;BME280_temperature;BME280_humidity;BME280_pressure;Samples;Min_cycle;Max_cycle;Signal;HPM_P1;HPM_P2
2021/11/12 00:13:30;;;;;;;28.85;16.67;;;;;;;0.82;65.58;100021.69;1672679;84;21603;-68
2021/11/12 00:16:01;;;;;;;29.48;16.20;;;;;;;0.82;65.76;100026.54;1686032;84;21023;-68
2021/11/12 00:18:29;;;;;;;25.68;15.75;;;;;;;0.82;65.75;100024.37;1703596;83;21086;-68
2021/11/12 00:20:59;;;;;;;30.35;17.00;;;;;;;0.82;65.88;100016.33;1700604;83;21070;-68
2021/11/12 00:23:27;;;;;;;30.17;16.23;;;;;;;0.82;66.03;100017.16;1678928;85;21120;-68
2021/11/12 00:25:54;;;;;;;24.35;16.60;;;;;;;0.84;65.98;100016.97;1720623;83;21066;-69
2021/11/12 00:28:24;;;;;;;27.15;15.63;;;;;;;0.82;66.01;100010.45;1689734;85;21148;-68
2021/11/12 00:33:41;;;;;;;28.05;17.10;;;;;;;0.82;66.14;100011.80;1680973;84;21655;-69
2021/11/12 00:38:33;;;;;;;26.23;17.35;;;;;;;0.79;66.17;100009.53;1673686;85;21635;-68
2021/11/12 00:43:44;;;;;;;27.32;16.70;;;;;;;0.77;66.17;99998.70;1671890;85;21010;-68
2021/11/12 00:46:17;;;;;;;25.23;16.30;;;;;;;0.74;66.39;100003.97;1718241;83;20994;-68
2021/11/12 00:48:53;;;;;;;29.55;16.67;;;;;;;0.72;66.58;99997.13;1673227;84;21097;-69
2021/11/12 00:51:23;;;;;;;27.60;16.67;;;;;;;0.71;66.56;99994.16;1669868;84;21037;-68
2021/11/12 00:56:22;;;;;;;26.45;15.88;;;;;;;0.66;66.66;99985.37;1693134;84;21063;-68
2021/11/12 00:58:48;;;;;;;30.95;16.90;;;;;;;0.65;66.84;99982.89;1696527;84;21095;-68
2021/11/12 01:01:15;;;;;;;28.38;17.65;;;;;;;0.64;67.07;99983.40;1688758;84;21051;-68
2021/11/12 01:03:41;;;;;;;28.45;16.57;;;;;;;0.66;67.10;99989.91;1696830;84;21086;-68
2021/11/12 01:06:07;;;;;;;26.42;16.17;;;;;;;0.64;67.20;99986.62;1681985;84;21083;-68
2021/11/12 01:08:35;;;;;;;29.98;16.93;;;;;;;0.64;67.28;99987.42;1687414;84;21589;-68
2021/11/12 01:11:03;;;;;;;26.82;17.23;;;;;;;0.63;67.28;99984.45;1695485;84;21043;-68
2021/11/12 01:13:30;;;;;;;24.80;15.60;;;;;;;0.63;67.45;99984.95;1674019;84;21589;-68
2021/11/12 01:15:57;;;;;;;27.30;16.40;;;;;;;0.64;67.48;99976.70;1685113;84;21047;-69
2021/11/12 01:18:24;;;;;;;29.48;17.00;;;;;;;0.65;67.42;99973.52;1687619;84;21120;-69
2021/11/12 01:20:52;;;;;;;27.35;16.00;;;;;;;0.65;67.53;99972.17;1692255;84;21457;-68
2021/11/12 01:23:19;;;;;;;23.35;15.85;;;;;;;0.64;67.66;99971.88;1659483;85;21119;-68
2021/11/12 01:25:47;;;;;;;26.52;16.57;;;;;;;0.65;67.74;99976.19;1663156;85;21550;-69
2021/11/12 01:28:14;;;;;;;24.57;15.98;;;;;;;0.65;68.02;99969.49;1663206;85;21098;-68
2021/11/12 01:30:40;;;;;;;31.48;16.80;;;;;;;0.64;68.15;99960.63;1686445;85;21015;-69
2021/11/12 01:33:07;;;;;;;;;;;;;;;0.61;68.29;99954.84;1703928;84;21157;-69
2021/11/12 01:35:34;;;;;;;26.35;16.48;;;;;;;0.61;68.64;99947.64;1659010;85;20141;-69
2021/11/12 01:38:01;;;;;;;27.67;16.90;;;;;;;0.55;69.09;99951.14;1658677;85;21047;-68
2021/11/12 01:40:29;;;;;;;31.27;16.73;;;;;;;0.60;69.32;99954.55;1696862;83;20943;-69
2021/11/12 01:43:09;;;;;;;26.87;16.23;;;;;;;0.61;69.51;99954.84;1669574;84;21043;-68
2021/11/12 01:45:50;;;;;;;27.40;16.20;;;;;;;0.60;69.59;99945.18;1675924;85;21575;-68
2021/11/12 01:50:55;;;;;;;29.87;17.25;;;;;;;0.65;70.01;99940.02;1697651;84;20995;-69
2021/11/12 01:53:25;;;;;;;25.88;16.65;;;;;;;0.68;70.33;99946.31;1698500;84;21499;-68
2021/11/12 01:55:47;;;;;;;23.83;16.80;;;;;;;0.70;70.56;99938.41;1700796;84;21018;-68
2021/11/12 02:00:50;;;;;;;26.07;17.12;;;;;;;0.78;70.74;99942.75;1660497;85;21054;-69
2021/11/12 02:03:17;;;;;;;27.70;17.50;;;;;;;0.79;70.88;99948.40;1704796;84;21064;-69
2021/11/12 02:05:43;;;;;;;28.32;17.05;;;;;;;0.82;70.93;99943.97;1685341;84;20999;-68
2021/11/12 02:08:10;;;;;;;27.15;16.42;;;;;;;0.83;70.91;99948.30;1666140;85;21093;-68
2021/11/12 02:10:37;;;;;;;25.95;16.75;;;;;;;0.83;70.95;99946.97;1661365;85;21002;-69
2021/11/12 02:13:12;;;;;;;;;;;;;;;0.82;71.00;99942.12;1662036;85;21637;-68
2021/11/12 02:15:33;;;;;;;26.50;16.07;;;;;;;0.83;70.98;99941.61;1679280;85;20135;-68
2021/11/12 02:18:13;;;;;;;26.97;16.93;;;;;;;0.79;71.11;99941.70;1663040;85;21076;-68
2021/11/12 02:23:03;;;;;;;27.37;17.48;;;;;;;0.75;71.16;99937.27;1710373;83;21030;-69
2021/11/12 02:26:05;;;;;;;27.35;16.42;;;;;;;0.74;71.17;99934.30;1712885;83;21010;-68
2021/11/12 02:28:08;;;;;;;28.30;17.30;;;;;;;0.72;71.19;99933.66;1670370;84;21061;-68
2021/11/12 02:30:34;;;;;;;25.57;16.35;;;;;;;0.71;71.37;99942.71;1679679;84;20986;-69
2021/11/12 02:33:18;;;;;;;28.67;17.05;;;;;;;0.71;71.41;99938.69;1679464;85;21058;-68
2021/11/12 02:36:13;;;;;;;29.27;16.87;;;;;;;0.69;71.39;99939.94;1694276;84;21033;-68
2021/11/12 02:38:43;;;;;;;25.62;15.90;;;;;;;0.69;71.42;99935.91;1695824;84;21049;-69
2021/11/12 02:41:09;;;;;;;29.63;17.37;;;;;;;0.62;71.52;99939.92;1688528;84;21034;-69
2021/11/12 02:43:37;;;;;;;;;;;;;;;0.58;71.65;99937.33;1691782;84;21045;-67
2021/11/12 02:46:06;;;;;;;29.05;16.65;;;;;;;0.56;71.72;99934.05;1689746;84;20146;-69
2021/11/12 02:48:35;;;;;;;26.93;17.20;;;;;;;0.49;71.92;99934.03;1715021;83;21697;-68
2021/11/12 02:51:02;;;;;;;29.72;17.25;;;;;;;0.46;72.07;99933.06;1702334;83;21405;-68
2021/11/12 02:53:29;;;;;;;27.55;16.97;;;;;;;0.43;72.23;99932.64;1679190;84;21631;-68
2021/11/12 02:56:01;;;;;;;24.10;15.93;;;;;;;0.41;72.32;99938.22;1681845;84;21017;-68
2021/11/12 02:58:24;;;;;;;30.55;16.93;;;;;;;0.40;72.36;99933.88;1693559;84;21541;-68
2021/11/12 03:00:50;;;;;;;;;;;;;;;0.37;72.52;99930.78;1686861;85;21597;-68
2021/11/12 03:03:18;;;;;;;;;;;;;;;0.35;72.57;99930.17;1717967;83;20440;-68
2021/11/12 03:05:45;;;;;;;27.80;16.05;;;;;;;0.28;72.77;99931.49;1691171;84;20123;-68
2021/11/12 03:08:12;;;;;;;27.87;17.20;;;;;;;0.22;72.96;99927.42;1695861;84;21082;-68
2021/11/12 03:10:38;;;;;;;29.12;17.42;;;;;;;0.21;73.12;99934.66;1701598;84;21578;-69
2021/11/12 03:13:06;;;;;;;27.40;17.45;;;;;;;0.20;73.25;99933.00;1709938;83;21029;-68
2021/11/12 03:15:33;;;;;;;29.70;18.77;;;;;;;0.20;73.23;99926.81;1716651;83;21058;-68
2021/11/12 03:18:00;;;;;;;32.13;18.92;;;;;;;0.20;73.17;99920.12;1681379;85;21058;-68
2021/11/12 03:20:28;;;;;;;28.25;17.90;;;;;;;0.18;73.22;99927.00;1718425;83;21365;-68
2021/11/12 03:23:08;;;;;;;28.95;18.27;;;;;;;0.15;73.26;99927.41;1673482;83;21067;-68
2021/11/12 03:25:43;;;;;;;30.97;18.85;;;;;;;0.15;73.48;99931.92;1674589;84;21087;-67
2021/11/12 03:47:07;;;;;;;32.05;18.87;;;;;;;0.11;74.30;99926.14;1695073;84;21051;-67
2021/11/12 04:00:39;;;;;;;33.28;19.73;;;;;;;0.16;74.81;99917.02;1698813;84;21581;-68
2021/11/12 05:10:52;;;;;;;40.25;23.77;;;;;;;-0.04;77.41;99938.33;1722554;83;21081;-68
2021/11/12 05:25:29;;;;;;;38.63;23.77;;;;;;;-0.03;77.46;99945.84;1709720;83;21069;-68
2021/11/12 05:33:35;;;;;;;33.75;22.50;;;;;;;-0.02;77.74;99948.84;1582324;89;21194;-68
2021/11/12 05:46:15;;;;;;;40.73;23.87;;;;;;;-0.04;77.62;99970.44;1735128;82;21034;-69
2021/11/12 05:51:32;;;;;;;43.40;26.40;;;;;;;0.00;77.50;99960.20;1735168;82;21047;-69
2021/11/12 05:56:42;;;;;;;40.78;25.43;;;;;;;0.08;77.49;99964.53;1725535;82;21026;-68
2021/11/12 05:59:10;;;;;;;39.25;26.05;;;;;;;0.11;77.52;99961.48;1735040;82;21611;-69
2021/11/12 06:01:38;;;;;;;44.25;26.93;;;;;;;0.12;77.62;99965.80;1729364;82;21106;-69
2021/11/12 06:04:05;;;;;;;44.27;26.57;;;;;;;0.18;77.70;99956.45;1723453;83;21018;-69
2021/11/12 06:06:31;;;;;;;;;;;;;;;0.24;77.73;99962.87;1738118;82;21019;-68
2021/11/12 06:08:58;;;;;;;42.43;26.85;;;;;;;0.32;77.69;99960.03;1741843;82;20110;-69
2021/11/12 06:11:27;;;;;;;45.92;27.80;;;;;;;0.38;77.69;99964.07;1750197;81;21581;-68
2021/11/12 06:13:58;;;;;;;50.43;29.72;;;;;;;0.47;77.68;99961.52;1753230;82;21012;-68
2021/11/12 06:16:26;;;;;;;44.95;27.20;;;;;;;0.54;77.80;99966.89;1736095;81;21655;-69
2021/11/12 06:18:53;;;;;;;;;;;;;;;0.61;77.93;99966.39;1745996;82;21501;-70
2021/11/12 06:21:21;;;;;;;51.95;29.52;;;;;;;0.77;77.90;99966.04;1735342;81;20111;-70
2021/11/12 06:23:48;;;;;;;46.05;28.65;;;;;;;0.92;77.80;99962.64;1752044;82;21620;-69
2021/11/12 06:26:14;;;;;;;;;;;;;;;1.13;77.61;99958.98;1751034;82;21529;-68
2021/11/12 06:28:42;;;;;;;60.92;35.60;;;;;;;1.38;77.44;99955.17;1745852;81;20133;-68
2021/11/12 06:31:09;;;;;;;48.78;32.23;;;;;;;1.52;77.36;99963.52;1738483;80;21569;-68
2021/11/12 06:33:37;;;;;;;54.55;33.50;;;;;;;1.69;77.19;99963.39;1742457;80;20990;-68
2021/11/12 06:36:06;;;;;;;47.58;32.78;;;;;;;1.92;77.02;99966.42;1731060;82;21032;-68
2021/11/12 06:38:34;;;;;;;49.13;31.07;;;;;;;2.17;76.80;99963.05;1721176;82;21044;-68
2021/11/12 06:41:07;;;;;;;48.25;34.25;;;;;;;2.44;76.59;99965.95;1723114;82;21091;-68
2021/11/12 06:43:42;;;;;;;47.45;33.00;;;;;;;2.65;76.25;99962.95;1726058;82;21071;-68
2021/11/12 06:51:33;;;;;;;47.58;32.55;;;;;;;3.21;75.60;99959.48;1678089;84;21082;-68
2021/11/12 06:54:00;;;;;;;44.00;30.82;;;;;;;3.41;75.23;99956.11;1685226;84;21483;-72
2021/11/12 06:56:26;;;;;;;46.55;31.40;;;;;;;3.53;74.92;99958.39;1685088;83;21650;-71
2021/11/12 06:58:52;;;;;;;45.73;30.57;;;;;;;3.67;74.69;99957.75;1736785;81;21479;-71
2021/11/12 07:01:20;;;;;;;40.38;29.87;;;;;;;3.84;74.36;99956.13;1729511;81;21018;-67
2021/11/12 07:03:47;;;;;;;41.00;28.73;;;;;;;4.07;73.82;99947.40;1716641;82;21020;-68
2021/11/12 07:06:14;;;;;;;38.63;28.90;;;;;;;4.22;73.32;99952.69;1730341;81;21395;-68
2021/11/12 07:08:40;;;;;;;38.65;27.80;;;;;;;4.38;72.87;99953.45;1733009;81;21020;-68
2021/11/12 07:11:08;;;;;;;37.13;27.37;;;;;;;4.49;72.39;99954.03;1729540;81;21039;-68
2021/11/12 07:13:34;;;;;;;38.35;28.57;;;;;;;4.65;72.01;99951.74;1733068;81;21007;-68
2021/11/12 07:16:01;;;;;;;37.58;27.77;;;;;;;4.80;71.42;99955.69;1722694;82;21114;-67
2021/11/12 07:18:28;;;;;;;33.95;26.55;;;;;;;4.90;70.98;99952.42;1721718;81;21568;-68
2021/11/12 07:20:55;;;;;;;38.35;26.97;;;;;;;5.03;71.13;99949.00;1732060;81;21513;-68
2021/11/12 07:23:23;;;;;;;;;;;;;;;5.15;70.44;99948.22;1727318;81;21016;-69
2021/11/12 07:25:51;;;;;;;37.65;26.87;;;;;;;5.17;70.12;99953.70;1709573;82;20117;-68
2021/11/12 07:28:18;;;;;;;35.13;28.38;;;;;;;5.29;70.31;99949.13;1709222;84;21036;-68
2021/11/12 07:30:46;;;;;;;39.40;29.15;;;;;;;5.59;69.91;99954.98;1722887;82;21542;-69
2021/11/12 07:33:13;;;;;;;38.28;28.57;;;;;;;5.80;69.47;99950.34;1723441;82;21573;-68
2021/11/12 07:35:59;;;;;;;37.50;28.42;;;;;;;5.95;68.80;99948.83;1708935;82;21015;-69
2021/11/12 07:38:25;;;;;;;39.42;29.65;;;;;;;6.02;68.25;99949.25;1714106;81;21583;-69
2021/11/12 07:44:04;;;;;;;39.58;28.80;;;;;;;6.25;67.63;99955.95;1709634;84;21063;-69
2021/11/12 07:48:33;;;;;;;39.42;29.35;;;;;;;6.55;67.17;99949.84;1709920;82;21547;-69
2021/11/12 07:50:59;;;;;;;35.15;28.02;;;;;;;6.84;67.04;99950.12;1707312;82;21600;-69
2021/11/12 07:53:26;;;;;;;38.88;28.35;;;;;;;7.00;65.98;99948.00;1721427;82;21992;-69
2021/11/12 07:55:55;;;;;;;36.77;28.45;;;;;;;7.10;65.23;99948.70;1666068;85;21003;-69
2021/11/12 07:58:22;;;;;;;44.13;34.55;;;;;;;7.17;65.07;99958.84;1670840;86;21111;-69
2021/11/12 08:00:48;;;;;;;56.88;47.35;;;;;;;7.27;64.86;99953.60;1676958;84;21015;-69
2021/11/12 08:03:17;;;;;;;60.17;50.10;;;;;;;7.33;64.54;99938.28;1671086;84;21087;-69
2021/11/12 08:05:49;;;;;;;41.30;32.55;;;;;;;7.39;64.09;99941.34;1681062;84;21494;-69
2021/11/12 08:08:16;;;;;;;40.05;31.17;;;;;;;7.43;64.09;99947.92;1684012;84;21114;-69
2021/11/12 08:10:56;;;;;;;41.55;32.50;;;;;;;7.45;63.94;99947.13;1693832;83;20976;-69
2021/11/12 08:16:04;;;;;;;38.42;31.42;;;;;;;7.57;64.11;99950.59;1695460;84;21514;-69
2021/11/12 08:21:10;;;;;;;42.93;33.25;;;;;;;7.81;64.15;99947.15;1689011;84;21518;-68
2021/11/12 08:23:53;;;;;;;41.65;34.20;;;;;;;7.90;63.64;99940.25;1690575;84;21051;-68
2021/11/12 08:26:29;;;;;;;45.48;34.65;;;;;;;7.92;63.53;99942.17;1679209;84;21593;-67
2021/11/12 08:34:13;;;;;;;68.52;49.45;;;;;;;7.87;63.29;99951.56;1715221;82;21491;-68
2021/11/12 08:44:09;;;;;;;46.98;39.23;;;;;;;8.33;62.30;99940.84;1727550;82;21048;-68
2021/11/12 08:49:05;;;;;;;42.43;34.53;;;;;;;8.33;61.69;99938.95;1724098;81;21005;-68
2021/11/12 08:51:35;;;;;;;40.10;32.60;;;;;;;8.30;61.68;99948.13;1727099;82;21116;-68
2021/11/12 08:54:03;;;;;;;39.23;31.77;;;;;;;8.32;61.39;99944.11;1736163;82;20960;-67
2021/11/12 08:56:29;;;;;;;40.55;32.65;;;;;;;8.35;61.52;99953.63;1731979;81;21107;-67
2021/11/12 08:58:55;;;;;;;39.58;32.48;;;;;;;8.35;61.54;99945.50;1741216;81;21502;-68
2021/11/12 09:01:22;;;;;;;40.05;32.53;;;;;;;8.41;61.57;99947.19;1727029;82;21553;-67
2021/11/12 09:03:49;;;;;;;45.25;34.75;;;;;;;8.54;61.14;99946.00;1718702;82;21527;-67
2021/11/12 09:06:16;;;;;;;58.58;41.42;;;;;;;8.59;60.91;99955.02;1721755;82;21490;-67
2021/11/12 09:08:42;;;;;;;;;;;;;;;8.65;61.28;99956.70;1697403;84;21625;-67
2021/11/12 09:11:10;;;;;;;49.33;38.13;;;;;;;8.93;60.65;99943.44;1670358;85;20147;-68
2021/11/12 09:13:52;;;;;;;48.95;35.92;;;;;;;8.85;60.31;99943.91;1684294;84;21515;-68
2021/11/12 09:16:17;;;;;;;50.38;38.95;;;;;;;8.73;60.17;99946.77;1734310;82;20999;-68
2021/11/12 09:18:48;;;;;;;45.70;35.45;;;;;;;8.55;60.74;99950.34;1730895;82;20965;-68
2021/11/12 09:21:16;;;;;;;47.62;35.30;;;;;;;8.37;61.25;99949.59;1740475;82;21470;-69
2021/11/12 09:23:43;;;;;;;46.80;36.15;;;;;;;8.25;61.91;99948.88;1717110;82;21082;-68
2021/11/12 09:26:09;;;;;;;42.62;33.70;;;;;;;8.13;62.28;99948.69;1725256;82;20975;-68
2021/11/12 09:28:35;;;;;;;42.67;32.73;;;;;;;8.00;62.91;99945.81;1721150;82;21039;-69
2021/11/12 09:31:03;;;;;;;;;;;;;;;7.99;63.35;99935.50;1736875;82;21000;-69
2021/11/12 09:33:29;;;;;;;43.55;33.08;;;;;;;7.93;63.68;99938.39;1724121;82;20126;-68
2021/11/12 09:35:56;;;;;;;42.53;33.28;;;;;;;7.79;64.38;99943.34;1731469;82;21011;-69
2021/11/12 09:38:24;;;;;;;43.95;30.88;;;;;;;7.77;64.76;99937.87;1743682;81;21026;-69
2021/11/12 09:40:50;;;;;;;42.88;30.65;;;;;;;7.77;65.08;99931.92;1741854;82;20995;-68
2021/11/12 09:43:17;;;;;;;41.05;31.42;;;;;;;7.90;65.33;99934.83;1723062;83;21137;-68
2021/11/12 09:45:43;;;;;;;;;;;;;;;7.95;65.52;99930.81;1744631;82;21027;-68
2021/11/12 09:48:09;;;;;;;41.13;30.30;;;;;;;7.93;65.88;99922.95;1749687;82;20150;-68
2021/11/12 09:50:36;;;;;;;34.55;25.27;;;;;;;7.88;66.30;99932.36;1740043;82;21005;-68
2021/11/12 09:53:03;;;;;;;32.80;23.00;;;;;;;7.95;66.84;99931.64;1723964;82;21565;-68
2021/11/12 09:55:30;;;;;;;27.07;20.65;;;;;;;8.03;67.18;99935.82;1741834;82;21558;-68
2021/11/12 09:58:00;;;;;;;32.60;21.45;;;;;;;8.07;67.32;99930.72;1751530;82;21577;-68
2021/11/12 10:00:26;;;;;;;30.60;21.48;;;;;;;8.04;67.87;99932.58;1746386;81;21490;-68
2021/11/12 10:02:53;;;;;;;32.13;22.93;;;;;;;7.99;68.22;99936.86;1701463;84;21608;-69
2021/11/12 10:05:45;;;;;;;30.62;21.95;;;;;;;7.97;68.60;99936.27;1737045;82;21485;-66
2021/11/12 10:08:32;;;;;;;30.23;20.77;;;;;;;8.07;68.86;99938.85;1734432;82;21039;-67
2021/11/12 10:11:09;;;;;;;29.15;21.68;;;;;;;8.18;68.90;99927.90;1735907;82;21529;-67
2021/11/12 10:13:40;;;;;;;29.50;22.87;;;;;;;8.25;68.66;99931.78;1729893;82;21063;-66
2021/11/12 10:19:13;;;;;;;30.45;21.55;;;;;;;8.27;68.46;99941.30;1749701;82;21478;-67
2021/11/12 10:21:48;;;;;;;28.62;20.90;;;;;;;8.33;68.48;99938.13;1731849;82;21071;-66
2021/11/12 10:24:27;;;;;;;28.52;21.10;;;;;;;8.40;68.34;99935.52;1745145;82;20979;-67
2021/11/12 10:26:56;;;;;;;29.52;21.02;;;;;;;8.38;68.39;99940.38;1735649;82;21070;-67
2021/11/12 10:29:26;;;;;;;26.45;18.90;;;;;;;8.39;68.55;99937.97;1723252;82;21010;-67
2021/11/12 10:32:02;;;;;;;28.17;21.05;;;;;;;8.54;68.71;99937.86;1744538;82;21011;-66
2021/11/12 10:34:32;;;;;;;28.25;21.37;;;;;;;8.72;68.43;99941.58;1745544;81;21050;-66
2021/11/12 10:37:18;;;;;;;28.42;22.13;;;;;;;8.79;68.11;99927.27;1752542;81;21099;-67
2021/11/12 10:39:57;;;;;;;28.87;22.07;;;;;;;8.82;68.05;99920.00;1745355;82;20979;-66
2021/11/12 10:42:28;;;;;;;26.93;20.25;;;;;;;8.93;67.68;99921.18;1731590;82;21086;-68
2021/11/12 10:45:04;;;;;;;26.12;20.02;;;;;;;8.98;67.26;99925.85;1736350;82;21451;-68
2021/11/12 10:47:33;;;;;;;28.70;21.02;;;;;;;9.07;67.42;99926.22;1733698;81;21050;-67
2021/11/12 10:50:06;;;;;;;30.32;21.87;;;;;;;9.22;67.26;99931.77;1741532;82;21047;-67
2021/11/12 10:52:34;;;;;;;29.00;21.20;;;;;;;9.21;66.83;99921.44;1724755;82;21031;-67
2021/11/12 10:55:09;;;;;;;27.98;20.55;;;;;;;9.17;66.72;99910.84;1727935;82;21538;-68
2021/11/12 10:57:41;;;;;;;27.65;20.23;;;;;;;9.13;66.78;99906.17;1735323;82;21086;-72
2021/11/12 11:00:21;;;;;;;24.98;20.55;;;;;;;9.11;66.84;99917.81;1735774;82;20994;-68
2021/11/12 11:02:59;;;;;;;26.45;20.37;;;;;;;9.00;67.32;99924.51;1740649;82;21155;-67
2021/11/12 11:05:33;;;;;;;28.85;21.10;;;;;;;8.98;67.79;99927.20;1740860;82;21013;-68
2021/11/12 11:08:08;;;;;;;25.17;20.15;;;;;;;9.10;67.71;99933.84;1731139;82;21178;-68
2021/11/12 11:10:37;;;;;;;28.15;21.33;;;;;;;9.26;67.51;99932.36;1722722;82;21002;-68
2021/11/12 11:13:12;;;;;;;27.15;20.62;;;;;;;9.35;67.21;99933.52;1742664;82;21117;-69
2021/11/12 11:15:55;;;;;;;30.60;22.85;;;;;;;9.34;66.82;99937.33;1694807;84;21042;-68
2021/11/12 11:18:40;;;;;;;26.68;20.17;;;;;;;9.25;66.77;99933.96;1731133;82;21614;-67
2021/11/12 11:24:00;;;;;;;26.37;19.00;;;;;;;9.18;67.06;99936.07;1750376;82;21070;-68
2021/11/12 11:26:40;;;;;;;30.05;20.40;;;;;;;9.11;67.31;99925.42;1735111;82;21495;-68
2021/11/12 11:29:09;;;;;;;27.70;19.87;;;;;;;9.03;67.65;99927.80;1747603;82;21027;-68
2021/11/12 11:31:36;;;;;;;29.25;20.45;;;;;;;9.04;68.00;99930.78;1727600;82;21581;-68
2021/11/12 11:34:03;;;;;;;26.97;19.95;;;;;;;9.14;67.72;99930.34;1733050;82;21031;-68
2021/11/12 11:36:35;;;;;;;27.22;20.60;;;;;;;9.15;67.52;99931.16;1733428;82;21181;-68
2021/11/12 11:39:05;;;;;;;29.63;20.30;;;;;;;9.15;67.71;99925.20;1742255;82;21099;-68
2021/11/12 11:41:32;;;;;;;25.85;19.35;;;;;;;9.21;67.85;99927.44;1728599;82;21062;-68
2021/11/12 11:43:58;;;;;;;29.40;20.20;;;;;;;9.33;67.57;99916.67;1727286;82;21053;-68
2021/11/12 11:46:31;;;;;;;25.92;19.62;;;;;;;9.45;67.15;99920.04;1735988;82;20995;-67
2021/11/12 11:49:02;;;;;;;26.90;20.95;;;;;;;9.50;67.15;99926.85;1736685;81;21050;-66
2021/11/12 11:51:43;;;;;;;27.62;19.23;;;;;;;9.52;66.92;99921.70;1730707;82;21027;-67
2021/11/12 11:54:11;;;;;;;28.10;19.77;;;;;;;9.50;66.60;99924.67;1747559;82;21339;-68
2021/11/12 11:56:44;;;;;;;24.05;17.87;;;;;;;9.42;66.63;99918.38;1748841;82;21059;-66
2021/11/12 11:59:32;;;;;;;30.30;20.00;;;;;;;9.41;66.77;99924.88;1734657;82;21387;-66
2021/11/12 12:02:01;;;;;;;22.27;18.23;;;;;;;9.40;66.68;99921.88;1727499;82;21069;-68
2021/11/12 12:04:49;;;;;;;25.23;19.55;;;;;;;9.32;67.11;99931.31;1730027;82;20999;-67
2021/11/12 12:07:22;;;;;;;25.40;19.52;;;;;;;9.34;67.06;99934.61;1725002;82;21098;-68
2021/11/12 12:10:05;;;;;;;27.50;19.48;;;;;;;9.35;67.04;99932.16;1741982;82;21070;-68
2021/11/12 12:12:37;;;;;;;26.30;20.60;;;;;;;9.41;66.95;99933.86;1727814;82;21006;-67
2021/11/12 12:15:12;;;;;;;25.25;19.30;;;;;;;9.43;66.89;99934.94;1739200;82;20991;-68
2021/11/12 12:17:43;;;;;;;;;;;;;;;9.34;67.10;99937.33;1746394;82;21122;-68
2021/11/12 13:23:09;;;;;;;25.80;19.12;;;;;;;8.65;68.92;99974.88;1746524;81;21801;-69
2021/11/12 13:25:56;;;;;;;25.60;18.00;;;;;;;8.62;69.00;99980.28;1738722;82;20993;-68
2021/11/12 13:28:37;;;;;;;26.57;19.07;;;;;;;8.59;69.04;99974.01;1747781;82;21094;-68
2021/11/12 13:31:12;;;;;;;28.00;19.95;;;;;;;8.53;69.30;99977.74;1731758;82;21026;-68
2021/11/12 13:33:49;;;;;;;26.10;19.32;;;;;;;8.48;69.48;99973.06;1727172;82;21167;-67
2021/11/12 13:36:28;;;;;;;30.30;20.32;;;;;;;8.53;69.48;99976.38;1739566;82;21513;-68
2021/11/12 13:39:19;;;;;;;27.90;19.62;;;;;;;8.57;69.37;99976.70;1720283;82;21102;-67
2021/11/12 13:41:51;;;;;;;27.55;20.10;;;;;;;8.51;69.45;99971.73;1727343;82;21106;-68
2021/11/12 13:44:21;;;;;;;27.77;21.27;;;;;;;8.43;69.69;99980.33;1732606;82;21488;-68
2021/11/12 13:46:58;;;;;;;29.15;19.92;;;;;;;8.41;69.83;99982.45;1711598;82;21539;-68
2021/11/12 13:49:44;;;;;;;27.00;19.83;;;;;;;8.41;69.86;99981.92;1715937;82;21011;-68
2021/11/12 13:52:16;;;;;;;28.50;20.20;;;;;;;8.37;69.93;99985.37;1737466;82;21032;-68
2021/11/12 13:54:47;;;;;;;29.75;21.95;;;;;;;8.28;70.18;99991.80;1732266;82;21494;-68
2021/11/12 13:57:17;;;;;;;28.25;21.17;;;;;;;8.23;70.39;99990.33;1709801;82;21091;-68
2021/11/12 14:00:06;;;;;;;29.32;20.08;;;;;;;8.21;70.47;99993.84;1714827;82;21023;-68
2021/11/12 14:03:07;;;;;;;26.55;20.15;;;;;;;8.22;70.46;99991.95;1726553;82;21123;-68
2021/11/12 14:05:38;;;;;;;28.85;23.07;;;;;;;8.20;70.51;100003.03;1729127;82;21011;-68
2021/11/12 14:08:12;;;;;;;32.17;22.60;;;;;;;8.14;70.73;99995.91;1739149;82;21024;-67
2021/11/12 14:10:52;;;;;;;29.33;22.97;;;;;;;8.08;70.92;99999.59;1723194;82;20996;-68
2021/11/12 14:13:20;;;;;;;31.05;24.57;;;;;;;8.07;71.02;99998.50;1715135;82;21510;-68
2021/11/12 14:16:05;;;;;;;35.73;25.95;;;;;;;8.06;71.03;100007.70;1727750;82;21522;-68
2021/11/12 14:18:40;;;;;;;37.90;27.80;;;;;;;8.07;71.05;100006.10;1734331;82;21087;-68
2021/11/12 14:21:13;;;;;;;42.35;27.65;;;;;;;8.03;71.10;99999.53;1719640;82;21455;-68
2021/11/12 14:36:53;;;;;;;29.00;20.32;;;;;;;7.75;71.31;100016.72;1712498;82;21114;-67
2021/11/12 14:45:19;;;;;;;31.70;21.27;;;;;;;7.57;71.59;100026.44;1666301;86;21042;-67
2021/11/12 14:48:00;;;;;;;30.45;21.23;;;;;;;7.43;71.81;100038.66;1667648;86;21625;-67
2021/11/12 14:56:10;;;;;;;55.00;37.28;;;;;;;7.19;71.73;100043.34;1734854;82;21019;-67
2021/11/12 14:58:43;;;;;;;47.62;33.30;;;;;;;7.12;72.17;100050.78;1724539;82;21023;-67
2021/11/12 15:01:15;;;;;;;72.37;44.23;;;;;;;7.04;72.55;100055.25;1748962;82;20999;-67
2021/11/12 15:03:45;;;;;;;58.78;38.13;;;;;;;6.94;72.83;100056.41;1726619;82;21043;-67
2021/11/12 15:06:14;;;;;;;65.35;40.35;;;;;;;6.88;73.00;100050.58;1740804;82;21529;-67
2021/11/12 15:09:30;;;;;;;138.77;73.70;;;;;;;6.85;73.03;100055.95;1738850;82;21108;-67
2021/11/12 15:11:11;;;;;;;169.65;87.30;;;;;;;6.79;73.25;100067.74;1724519;82;21829;-67
2021/11/12 15:13:40;;;;;;;82.78;49.40;;;;;;;6.74;73.27;100066.80;1732801;82;21031;-67
2021/11/12 15:17:07;;;;;;;59.30;38.98;;;;;;;6.66;73.32;100067.19;1723950;82;21527;-67
2021/11/12 15:18:44;;;;;;;60.08;39.48;;;;;;;6.55;73.44;100070.20;1704258;82;21221;-67
2021/11/12 15:22:01;;;;;;;56.40;41.48;;;;;;;6.45;73.58;100079.42;1733741;82;20971;-67
2021/11/12 15:34:29;;;;;;;56.10;35.55;;;;;;;6.07;74.54;100089.36;1723016;82;21066;-68
2021/11/12 15:37:05;;;;;;;51.10;31.48;;;;;;;6.02;74.99;100095.19;1742167;82;21569;-68
2021/11/12 15:39:33;;;;;;;46.88;30.02;;;;;;;6.07;75.08;100104.23;1744956;82;21036;-68
2021/11/12 15:44:44;;;;;;;56.30;38.95;;;;;;;6.18;75.14;100108.83;1711808;82;21039;-70
2021/11/12 15:49:59;;;;;;;67.35;43.25;;;;;;;6.20;75.52;100119.42;1725206;82;21553;-69
2021/11/12 16:07:45;;;;;;;44.00;29.52;;;;;;;6.47;75.68;100128.70;1725853;82;21060;-68
2021/11/12 16:10:23;;;;;;;41.73;27.75;;;;;;;6.46;75.85;100128.40;1725110;82;21017;-68
2021/11/12 16:17:48;;;;;;;61.35;46.25;;;;;;;6.58;75.67;100138.70;1724141;82;21040;-68
2021/11/12 16:25:43;;;;;;;50.45;36.33;;;;;;;6.49;76.00;100150.39;1726532;82;20988;-68
2021/11/12 16:28:20;;;;;;;50.03;35.38;;;;;;;6.49;76.03;100147.69;1715772;82;21692;-68
2021/11/12 16:30:50;;;;;;;66.22;48.58;;;;;;;6.53;75.89;100153.45;1718275;82;21031;-69
2021/11/12 16:33:13;;;;;;;66.92;49.25;;;;;;;6.55;75.73;100155.41;1722046;82;21051;-69
2021/11/12 16:35:42;;;;;;;49.55;35.05;;;;;;;6.50;75.76;100153.40;1713810;82;21440;-69
2021/11/12 16:38:33;;;;;;;42.23;30.95;;;;;;;6.47;75.87;100157.10;1719583;82;21072;-69
2021/11/12 16:40:40;;;;;;;41.40;32.23;;;;;;;6.49;75.75;100162.56;1722469;82;21039;-69
2021/11/12 16:43:14;;;;;;;35.90;24.98;;;;;;;6.53;75.55;100154.80;1729453;82;21058;-68
2021/11/12 16:48:49;;;;;;;36.05;24.57;;;;;;;6.54;75.35;100157.81;1730646;82;21700;-68
2021/11/12 16:59:15;;;;;;;32.50;22.82;;;;;;;6.60;74.73;100158.73;1727835;82;21063;-68
2021/11/12 18:21:34;;;;;;;26.23;17.73;;;;;;;6.52;71.83;100193.72;1733989;82;22016;-70
2021/11/12 21:45:59;;;;;;;37.48;22.60;;;;;;;3.49;74.11;100323.25;1717742;82;20980;-68
2021/11/12 21:48:19;;;;;;;37.17;22.00;;;;;;;3.39;74.30;100325.04;1718508;82;21055;-68
2021/11/12 21:50:48;;;;;;;;;;;;;;;3.29;74.66;100326.00;1717445;82;21053;-67
2021/11/12 21:53:14;;;;;;;39.98;21.85;;;;;;;3.24;74.89;100331.69;1747578;82;20115;-68
2021/11/12 21:55:41;;;;;;;37.10;22.07;;;;;;;3.16;74.99;100331.38;1741446;81;21110;-68
2021/11/12 21:58:08;;;;;;;42.23;22.85;;;;;;;3.13;75.04;100334.49;1715882;82;21059;-68
2021/11/12 22:00:35;;;;;;;39.13;22.73;;;;;;;3.09;75.17;100337.80;1736915;82;21063;-68
2021/11/12 22:03:01;;;;;;;;;;;;;;;3.04;75.46;100338.45;1725057;82;21135;-67